Parmelee, South Dakota
Current Conditions -  °F | °C
As of 6:52 PM on Monday 22 Dec 2014 (Local Time) from KVTN Reporting Station
Overcast Overcast  
Wind Chill: 15°   Ceiling: 7000
Heat Index: 29°   Visibility: 9mi
Dew Point: 25°   Wind: 22mph
Humidity: 85%   Direction: 330°NNW
Pressure: 29.57"   Gusts: 30mph
Location:  43.32°N, 101.03°W
Report Text: KVTN 230152Z AUTO 33019G26KT 9SM FEW014 BKN070 OVC085 M02/M04 A2957 RMK AO2 PK WND 33033/0123 SNE41 SLP031 P0000 T10171039
Loading
Personal Weather Stations






























Interactive Weather Map New forecast layout! Learn more

10-Day Weather Forecast

Advertisements
Track Severe Weather on mobile